sensor_id;sensor_type;location;lat;lon;timestamp;P1;P2;P0
73687;PMS7003;62257;48.376;-4.378;2022-10-16T00:00:15;0.00;0.00;0.00
73687;PMS7003;62257;48.376;-4.378;2022-10-16T00:02:40;1.50;0.00;0.00
73687;PMS7003;62257;48.376;-4.378;2022-10-16T00:05:06;0.00;0.00;0.00
73687;PMS7003;62257;48.376;-4.378;2022-10-16T00:07:31;0.00;0.00;0.00
73687;PMS7003;62257;48.376;-4.378;2022-10-16T00:09:57;1.00;0.00;0.00
73687;PMS7003;62257;48.376;-4.378;2022-10-16T00:12:22;0.00;0.00;0.00
73687;PMS7003;62257;48.376;-4.378;2022-10-16T00:14:47;2.50;0.00;0.00
73687;PMS7003;62257;48.376;-4.378;2022-10-16T00:17:13;0.00;0.00;0.00
73687;PMS7003;62257;48.376;-4.378;2022-10-16T00:19:38;0.50;0.00;0.00
73687;PMS7003;62257;48.376;-4.378;2022-10-16T00:22:04;3.00;0.75;0.00
73687;PMS7003;62257;48.376;-4.378;2022-10-16T00:24:29;2.50;0.75;0.75
73687;PMS7003;62257;48.376;-4.378;2022-10-16T00:26:54;2.00;0.00;0.00
73687;PMS7003;62257;48.376;-4.378;2022-10-16T00:29:20;4.00;2.00;1.00
73687;PMS7003;62257;48.376;-4.378;2022-10-16T00:31:45;0.75;0.50;0.00
73687;PMS7003;62257;48.376;-4.378;2022-10-16T00:34:10;0.00;0.00;0.00
73687;PMS7003;62257;48.376;-4.378;2022-10-16T00:36:36;1.00;1.00;1.00
73687;PMS7003;62257;48.376;-4.378;2022-10-16T00:39:02;2.00;0.00;0.00
73687;PMS7003;62257;48.376;-4.378;2022-10-16T00:41:28;2.00;0.00;0.00
73687;PMS7003;62257;48.376;-4.378;2022-10-16T00:46:24;2.50;1.00;0.00
73687;PMS7003;62257;48.376;-4.378;2022-10-16T00:49:05;4.25;1.25;1.00
73687;PMS7003;62257;48.376;-4.378;2022-10-16T00:51:35;1.00;0.00;0.00
73687;PMS7003;62257;48.376;-4.378;2022-10-16T00:54:03;0.00;0.00;0.00
73687;PMS7003;62257;48.376;-4.378;2022-10-16T00:56:33;2.00;0.25;0.00
73687;PMS7003;62257;48.376;-4.378;2022-10-16T00:58:58;2.00;1.00;0.00
73687;PMS7003;62257;48.376;-4.378;2022-10-16T01:01:32;0.00;0.00;0.00
73687;PMS7003;62257;48.376;-4.378;2022-10-16T01:03:58;1.75;0.00;0.00
73687;PMS7003;62257;48.376;-4.378;2022-10-16T01:06:24;0.50;0.50;0.00
73687;PMS7003;62257;48.376;-4.378;2022-10-16T01:09:18;1.25;0.00;0.00
73687;PMS7003;62257;48.376;-4.378;2022-10-16T01:14:26;2.00;0.00;0.00
73687;PMS7003;62257;48.376;-4.378;2022-10-16T01:17:13;0.50;0.00;0.00
73687;PMS7003;62257;48.376;-4.378;2022-10-16T01:22:24;0.25;0.25;0.00
73687;PMS7003;62257;48.376;-4.378;2022-10-16T01:24:54;0.75;0.75;0.50
73687;PMS7003;62257;48.376;-4.378;2022-10-16T01:27:29;1.50;1.25;0.75
73687;PMS7003;62257;48.376;-4.378;2022-10-16T01:40:33;0.50;0.00;0.00
73687;PMS7003;62257;48.376;-4.378;2022-10-16T01:43:22;0.50;0.00;0.00
73687;PMS7003;62257;48.376;-4.378;2022-10-16T01:45:56;1.00;0.00;0.00
73687;PMS7003;62257;48.376;-4.378;2022-10-16T01:48:23;2.50;1.00;0.00
73687;PMS7003;62257;48.376;-4.378;2022-10-16T01:50:52;0.00;0.00;0.00
73687;PMS7003;62257;48.376;-4.378;2022-10-16T01:53:21;1.50;1.50;0.25
73687;PMS7003;62257;48.376;-4.378;2022-10-16T01:55:47;2.00;1.00;1.00
73687;PMS7003;62257;48.376;-4.378;2022-10-16T01:58:15;0.00;0.00;0.00
73687;PMS7003;62257;48.376;-4.378;2022-10-16T02:00:42;3.00;0.00;0.00
73687;PMS7003;62257;48.376;-4.378;2022-10-16T02:03:09;3.75;0.75;0.00
73687;PMS7003;62257;48.376;-4.378;2022-10-16T02:05:41;1.00;1.00;0.00
73687;PMS7003;62257;48.376;-4.378;2022-10-16T02:08:14;1.00;0.75;0.00
73687;PMS7003;62257;48.376;-4.378;2022-10-16T02:10:40;2.50;0.00;0.00
73687;PMS7003;62257;48.376;-4.378;2022-10-16T02:13:07;1.50;0.00;0.00
73687;PMS7003;62257;48.376;-4.378;2022-10-16T02:15:37;1.00;0.25;0.00
73687;PMS7003;62257;48.376;-4.378;2022-10-16T02:18:03;3.75;0.00;0.00
73687;PMS7003;62257;48.376;-4.378;2022-10-16T02:20:32;5.75;1.00;0.00
73687;PMS7003;62257;48.376;-4.378;2022-10-16T02:23:05;1.75;0.00;0.00
73687;PMS7003;62257;48.376;-4.378;2022-10-16T02:25:38;3.50;1.00;0.00
73687;PMS7003;62257;48.376;-4.378;2022-10-16T02:28:27;0.00;0.00;0.00
73687;PMS7003;62257;48.376;-4.378;2022-10-16T02:31:04;1.00;1.00;0.75
73687;PMS7003;62257;48.376;-4.378;2022-10-16T02:33:33;2.50;1.25;1.00
73687;PMS7003;62257;48.376;-4.378;2022-10-16T02:36:01;1.00;1.00;1.00
73687;PMS7003;62257;48.376;-4.378;2022-10-16T02:38:26;1.50;1.00;1.00
73687;PMS7003;62257;48.376;-4.378;2022-10-16T02:40:55;4.00;1.00;1.00
73687;PMS7003;62257;48.376;-4.378;2022-10-16T02:43:21;0.75;0.75;0.50
73687;PMS7003;62257;48.376;-4.378;2022-10-16T02:45:46;1.25;1.25;1.00
73687;PMS7003;62257;48.376;-4.378;2022-10-16T02:48:11;3.50;0.00;0.00
73687;PMS7003;62257;48.376;-4.378;2022-10-16T02:50:37;1.00;1.00;0.75
73687;PMS7003;62257;48.376;-4.378;2022-10-16T02:53:02;1.75;1.25;0.00
73687;PMS7003;62257;48.376;-4.378;2022-10-16T02:55:27;1.00;1.00;0.00
73687;PMS7003;62257;48.376;-4.378;2022-10-16T02:57:53;2.00;0.50;0.00
73687;PMS7003;62257;48.376;-4.378;2022-10-16T03:00:19;2.00;0.00;0.00
73687;PMS7003;62257;48.376;-4.378;2022-10-16T03:02:44;3.00;0.25;0.00
73687;PMS7003;62257;48.376;-4.378;2022-10-16T03:05:11;0.00;0.00;0.00
73687;PMS7003;62257;48.376;-4.378;2022-10-16T03:07:37;2.25;0.00;0.00
73687;PMS7003;62257;48.376;-4.378;2022-10-16T03:10:02;0.25;0.25;0.00
73687;PMS7003;62257;48.376;-4.378;2022-10-16T03:12:28;0.75;0.00;0.00
73687;PMS7003;62257;48.376;-4.378;2022-10-16T03:14:55;1.75;1.75;0.25
73687;PMS7003;62257;48.376;-4.378;2022-10-16T03:17:21;2.50;1.00;0.25
73687;PMS7003;62257;48.376;-4.378;2022-10-16T03:19:47;5.25;2.00;2.00
73687;PMS7003;62257;48.376;-4.378;2022-10-16T03:22:12;3.00;3.00;2.00
73687;PMS7003;62257;48.376;-4.378;2022-10-16T03:24:37;7.25;5.00;4.00
73687;PMS7003;62257;48.376;-4.378;2022-10-16T03:27:03;5.75;5.75;5.00
73687;PMS7003;62257;48.376;-4.378;2022-10-16T03:29:28;8.00;6.00;4.00
73687;PMS7003;62257;48.376;-4.378;2022-10-16T03:31:54;5.75;3.50;3.00
73687;PMS7003;62257;48.376;-4.378;2022-10-16T03:34:20;2.00;2.00;1.00
73687;PMS7003;62257;48.376;-4.378;2022-10-16T03:36:46;3.00;1.00;1.00
73687;PMS7003;62257;48.376;-4.378;2022-10-16T03:39:11;5.00;2.00;1.00
73687;PMS7003;62257;48.376;-4.378;2022-10-16T03:41:37;1.75;1.00;0.75
73687;PMS7003;62257;48.376;-4.378;2022-10-16T03:44:02;0.50;0.50;0.50
73687;PMS7003;62257;48.376;-4.378;2022-10-16T03:46:27;2.50;0.25;0.00
73687;PMS7003;62257;48.376;-4.378;2022-10-16T03:48:53;2.75;1.75;1.00
73687;PMS7003;62257;48.376;-4.378;2022-10-16T03:51:18;2.00;0.75;0.00
73687;PMS7003;62257;48.376;-4.378;2022-10-16T03:53:43;0.75;0.75;0.00
73687;PMS7003;62257;48.376;-4.378;2022-10-16T03:56:09;2.00;1.00;0.00
73687;PMS7003;62257;48.376;-4.378;2022-10-16T03:58:34;2.50;0.00;0.00
73687;PMS7003;62257;48.376;-4.378;2022-10-16T04:01:00;4.50;2.00;1.00
73687;PMS7003;62257;48.376;-4.378;2022-10-16T04:03:25;0.25;0.00;0.00
73687;PMS7003;62257;48.376;-4.378;2022-10-16T04:05:50;3.75;0.00;0.00
73687;PMS7003;62257;48.376;-4.378;2022-10-16T04:08:16;2.50;1.00;0.75
73687;PMS7003;62257;48.376;-4.378;2022-10-16T04:10:44;1.00;1.00;0.00
73687;PMS7003;62257;48.376;-4.378;2022-10-16T04:13:10;1.25;0.00;0.00
73687;PMS7003;62257;48.376;-4.378;2022-10-16T04:15:36;1.50;1.00;0.00
73687;PMS7003;62257;48.376;-4.378;2022-10-16T04:18:01;1.00;1.00;1.00
73687;PMS7003;62257;48.376;-4.378;2022-10-16T04:20:27;0.75;0.00;0.00
73687;PMS7003;62257;48.376;-4.378;2022-10-16T04:22:52;3.00;1.00;0.75
73687;PMS7003;62257;48.376;-4.378;2022-10-16T04:25:18;1.00;1.00;0.00
73687;PMS7003;62257;48.376;-4.378;2022-10-16T04:27:43;0.25;0.25;0.00
73687;PMS7003;62257;48.376;-4.378;2022-10-16T04:30:08;1.75;1.25;1.00
73687;PMS7003;62257;48.376;-4.378;2022-10-16T04:32:34;1.50;1.00;1.00
73687;PMS7003;62257;48.376;-4.378;2022-10-16T04:35:00;2.25;2.25;2.00
73687;PMS7003;62257;48.376;-4.378;2022-10-16T04:37:26;1.75;1.50;1.00
73687;PMS7003;62257;48.376;-4.378;2022-10-16T04:39:52;1.00;1.00;1.00
73687;PMS7003;62257;48.376;-4.378;2022-10-16T04:42:18;1.75;1.00;1.00
73687;PMS7003;62257;48.376;-4.378;2022-10-16T04:44:44;1.00;1.00;1.00
73687;PMS7003;62257;48.376;-4.378;2022-10-16T04:47:09;2.00;0.00;0.00
73687;PMS7003;62257;48.376;-4.378;2022-10-16T04:49:35;2.00;0.50;0.00
73687;PMS7003;62257;48.376;-4.378;2022-10-16T04:52:00;1.00;1.00;1.00
73687;PMS7003;62257;48.376;-4.378;2022-10-16T04:54:25;1.00;1.00;1.00
73687;PMS7003;62257;48.376;-4.378;2022-10-16T04:56:51;2.00;1.00;0.00
73687;PMS7003;62257;48.376;-4.378;2022-10-16T04:59:17;1.25;1.00;1.00
73687;PMS7003;62257;48.376;-4.378;2022-10-16T05:01:44;0.75;0.75;0.25
73687;PMS7003;62257;48.376;-4.378;2022-10-16T05:04:10;0.00;0.00;0.00
73687;PMS7003;62257;48.376;-4.378;2022-10-16T05:06:36;5.25;1.50;1.00
73687;PMS7003;62257;48.376;-4.378;2022-10-16T05:09:03;1.25;0.50;0.50
73687;PMS7003;62257;48.376;-4.378;2022-10-16T05:11:29;0.25;0.25;0.00
73687;PMS7003;62257;48.376;-4.378;2022-10-16T05:13:54;0.00;0.00;0.00
73687;PMS7003;62257;48.376;-4.378;2022-10-16T05:16:20;1.25;1.00;1.00
73687;PMS7003;62257;48.376;-4.378;2022-10-16T05:18:45;1.50;1.00;0.00
73687;PMS7003;62257;48.376;-4.378;2022-10-16T05:21:10;2.00;1.00;1.00
73687;PMS7003;62257;48.376;-4.378;2022-10-16T05:23:36;2.00;0.00;0.00
73687;PMS7003;62257;48.376;-4.378;2022-10-16T05:26:01;3.25;1.00;1.00
73687;PMS7003;62257;48.376;-4.378;2022-10-16T05:28:27;1.50;1.00;0.00
73687;PMS7003;62257;48.376;-4.378;2022-10-16T05:30:54;1.50;1.50;1.00
73687;PMS7003;62257;48.376;-4.378;2022-10-16T05:33:20;5.00;1.25;1.00
73687;PMS7003;62257;48.376;-4.378;2022-10-16T05:35:46;1.25;1.00;1.00
73687;PMS7003;62257;48.376;-4.378;2022-10-16T05:38:12;1.00;1.00;1.00
73687;PMS7003;62257;48.376;-4.378;2022-10-16T05:40:37;1.75;1.00;0.00
73687;PMS7003;62257;48.376;-4.378;2022-10-16T05:43:03;1.00;1.00;1.00
73687;PMS7003;62257;48.376;-4.378;2022-10-16T05:45:28;2.50;1.00;0.00
73687;PMS7003;62257;48.376;-4.378;2022-10-16T05:47:53;2.50;1.00;0.00
73687;PMS7003;62257;48.376;-4.378;2022-10-16T05:50:19;2.50;1.50;1.00
73687;PMS7003;62257;48.376;-4.378;2022-10-16T05:52:44;2.25;1.25;1.00
73687;PMS7003;62257;48.376;-4.378;2022-10-16T05:55:09;0.00;0.00;0.00
73687;PMS7003;62257;48.376;-4.378;2022-10-16T05:57:35;2.00;0.00;0.00
73687;PMS7003;62257;48.376;-4.378;2022-10-16T06:00:00;2.00;0.50;0.00
73687;PMS7003;62257;48.376;-4.378;2022-10-16T06:02:26;2.00;1.00;1.00
73687;PMS7003;62257;48.376;-4.378;2022-10-16T06:04:52;0.00;0.00;0.00
73687;PMS7003;62257;48.376;-4.378;2022-10-16T06:07:20;1.25;1.00;1.00
73687;PMS7003;62257;48.376;-4.378;2022-10-16T06:09:50;1.75;0.00;0.00
73687;PMS7003;62257;48.376;-4.378;2022-10-16T06:12:17;1.00;1.00;1.00
73687;PMS7003;62257;48.376;-4.378;2022-10-16T06:14:42;3.50;1.00;0.00
73687;PMS7003;62257;48.376;-4.378;2022-10-16T06:17:08;0.50;0.25;0.00
73687;PMS7003;62257;48.376;-4.378;2022-10-16T06:19:33;0.25;0.25;0.00
73687;PMS7003;62257;48.376;-4.378;2022-10-16T06:21:58;2.00;0.25;0.00
73687;PMS7003;62257;48.376;-4.378;2022-10-16T06:24:24;2.00;0.25;0.25
73687;PMS7003;62257;48.376;-4.378;2022-10-16T06:26:50;1.00;1.00;0.00
73687;PMS7003;62257;48.376;-4.378;2022-10-16T06:29:16;2.00;2.00;1.00
73687;PMS7003;62257;48.376;-4.378;2022-10-16T06:31:41;4.50;1.75;1.25
73687;PMS7003;62257;48.376;-4.378;2022-10-16T06:34:08;2.00;1.00;0.25
73687;PMS7003;62257;48.376;-4.378;2022-10-16T06:36:35;1.50;1.50;1.00
73687;PMS7003;62257;48.376;-4.378;2022-10-16T06:39:02;3.00;1.75;1.00
73687;PMS7003;62257;48.376;-4.378;2022-10-16T06:41:27;2.25;1.00;1.00
73687;PMS7003;62257;48.376;-4.378;2022-10-16T06:43:53;5.00;2.25;2.00
73687;PMS7003;62257;48.376;-4.378;2022-10-16T06:46:20;7.75;4.50;2.00
73687;PMS7003;62257;48.376;-4.378;2022-10-16T06:48:47;3.75;2.00;1.00
73687;PMS7003;62257;48.376;-4.378;2022-10-16T06:51:16;7.25;2.00;1.25
73687;PMS7003;62257;48.376;-4.378;2022-10-16T06:53:44;5.25;3.50;1.25
73687;PMS7003;62257;48.376;-4.378;2022-10-16T06:56:15;8.25;4.00;3.00
73687;PMS7003;62257;48.376;-4.378;2022-10-16T06:58:49;6.75;4.25;2.00
73687;PMS7003;62257;48.376;-4.378;2022-10-16T07:01:16;7.00;4.00;3.00
73687;PMS7003;62257;48.376;-4.378;2022-10-16T07:03:43;4.75;3.00;2.25
73687;PMS7003;62257;48.376;-4.378;2022-10-16T07:06:11;4.25;3.00;2.00
73687;PMS7003;62257;48.376;-4.378;2022-10-16T07:08:38;9.25;3.25;2.00
73687;PMS7003;62257;48.376;-4.378;2022-10-16T07:11:08;13.00;6.50;2.50
73687;PMS7003;62257;48.376;-4.378;2022-10-16T07:13:35;11.50;4.00;1.00
73687;PMS7003;62257;48.376;-4.378;2022-10-16T07:16:09;7.25;2.00;1.00
73687;PMS7003;62257;48.376;-4.378;2022-10-16T07:18:37;13.50;5.75;2.00
73687;PMS7003;62257;48.376;-4.378;2022-10-16T07:21:09;5.50;2.00;1.00
73687;PMS7003;62257;48.376;-4.378;2022-10-16T07:23:36;4.75;1.25;1.00
73687;PMS7003;62257;48.376;-4.378;2022-10-16T07:26:02;4.00;1.00;1.00
73687;PMS7003;62257;48.376;-4.378;2022-10-16T07:28:28;10.50;2.50;2.00
73687;PMS7003;62257;48.376;-4.378;2022-10-16T07:30:54;9.00;4.50;2.00
73687;PMS7003;62257;48.376;-4.378;2022-10-16T07:33:20;6.50;3.00;1.00
73687;PMS7003;62257;48.376;-4.378;2022-10-16T07:35:49;7.00;2.00;1.00
73687;PMS7003;62257;48.376;-4.378;2022-10-16T07:38:16;4.00;1.75;1.00
73687;PMS7003;62257;48.376;-4.378;2022-10-16T07:40:42;2.75;1.50;0.50
73687;PMS7003;62257;48.376;-4.378;2022-10-16T07:43:07;7.50;2.00;1.00
73687;PMS7003;62257;48.376;-4.378;2022-10-16T07:45:32;5.25;2.00;1.00
73687;PMS7003;62257;48.376;-4.378;2022-10-16T07:47:58;6.75;2.25;1.00
73687;PMS7003;62257;48.376;-4.378;2022-10-16T07:50:23;7.25;1.75;1.00
73687;PMS7003;62257;48.376;-4.378;2022-10-16T07:52:48;10.50;4.25;2.25
73687;PMS7003;62257;48.376;-4.378;2022-10-16T07:55:14;2.00;2.00;1.00
73687;PMS7003;62257;48.376;-4.378;2022-10-16T07:57:39;10.25;3.00;2.00
73687;PMS7003;62257;48.376;-4.378;2022-10-16T08:00:05;3.50;1.00;1.00
73687;PMS7003;62257;48.376;-4.378;2022-10-16T08:02:31;4.50;1.00;1.00
73687;PMS7003;62257;48.376;-4.378;2022-10-16T08:04:56;5.25;2.25;1.00
73687;PMS7003;62257;48.376;-4.378;2022-10-16T08:07:22;7.50;2.75;2.00
73687;PMS7003;62257;48.376;-4.378;2022-10-16T08:09:50;16.50;3.75;1.00
73687;PMS7003;62257;48.376;-4.378;2022-10-16T08:12:16;8.00;5.50;2.00
73687;PMS7003;62257;48.376;-4.378;2022-10-16T08:14:42;9.50;3.00;2.00
73687;PMS7003;62257;48.376;-4.378;2022-10-16T08:17:07;6.25;3.00;1.50
73687;PMS7003;62257;48.376;-4.378;2022-10-16T08:19:33;17.50;6.50;2.00
73687;PMS7003;62257;48.376;-4.378;2022-10-16T08:21:59;6.75;5.25;3.75
73687;PMS7003;62257;48.376;-4.378;2022-10-16T08:24:25;17.25;8.00;3.25
73687;PMS7003;62257;48.376;-4.378;2022-10-16T08:26:53;5.75;4.00;2.00
73687;PMS7003;62257;48.376;-4.378;2022-10-16T08:29:19;22.00;10.75;2.50
73687;PMS7003;62257;48.376;-4.378;2022-10-16T08:31:44;7.50;5.00;3.00
73687;PMS7003;62257;48.376;-4.378;2022-10-16T08:34:09;9.50;5.25;2.00
73687;PMS7003;62257;48.376;-4.378;2022-10-16T08:36:35;5.50;3.50;2.00
73687;PMS7003;62257;48.376;-4.378;2022-10-16T08:39:00;19.75;8.00;3.00
73687;PMS7003;62257;48.376;-4.378;2022-10-16T08:46:53;3.75;2.00;1.25
73687;PMS7003;62257;48.376;-4.378;2022-10-16T08:49:25;4.50;3.50;2.50
73687;PMS7003;62257;48.376;-4.378;2022-10-16T08:51:51;3.25;2.25;2.00
73687;PMS7003;62257;48.376;-4.378;2022-10-16T08:54:26;4.00;3.00;2.00
73687;PMS7003;62257;48.376;-4.378;2022-10-16T08:56:55;3.00;2.00;1.25
73687;PMS7003;62257;48.376;-4.378;2022-10-16T08:59:22;2.00;2.00;1.00
73687;PMS7003;62257;48.376;-4.378;2022-10-16T09:01:49;1.00;1.00;1.00
73687;PMS7003;62257;48.376;-4.378;2022-10-16T09:15:58;2.00;2.00;1.75
73687;PMS7003;62257;48.376;-4.378;2022-10-16T09:21:31;3.00;2.00;2.00
73687;PMS7003;62257;48.376;-4.378;2022-10-16T09:24:07;2.00;2.00;1.00
73687;PMS7003;62257;48.376;-4.378;2022-10-16T09:26:35;1.00;1.00;1.00
73687;PMS7003;62257;48.376;-4.378;2022-10-16T09:29:00;1.25;1.25;1.00
73687;PMS7003;62257;48.376;-4.378;2022-10-16T09:31:27;1.75;1.75;1.50
73687;PMS7003;62257;48.376;-4.378;2022-10-16T09:33:54;2.00;2.00;1.50
73687;PMS7003;62257;48.376;-4.378;2022-10-16T09:36:23;1.00;1.00;1.00
73687;PMS7003;62257;48.376;-4.378;2022-10-16T09:38:50;1.00;1.00;1.00
73687;PMS7003;62257;48.376;-4.378;2022-10-16T09:41:30;2.00;1.00;1.00
73687;PMS7003;62257;48.376;-4.378;2022-10-16T09:43:56;1.50;1.50;1.25
73687;PMS7003;62257;48.376;-4.378;2022-10-16T09:46:26;11.00;8.00;7.75
73687;PMS7003;62257;48.376;-4.378;2022-10-16T09:48:56;1.00;1.00;1.00
73687;PMS7003;62257;48.376;-4.378;2022-10-16T09:51:25;3.75;1.25;1.00
73687;PMS7003;62257;48.376;-4.378;2022-10-16T09:56:34;2.00;2.00;1.00
73687;PMS7003;62257;48.376;-4.378;2022-10-16T09:59:19;1.50;1.00;0.75
73687;PMS7003;62257;48.376;-4.378;2022-10-16T10:01:47;1.25;1.25;1.00
73687;PMS7003;62257;48.376;-4.378;2022-10-16T10:04:15;1.25;1.00;1.00
73687;PMS7003;62257;48.376;-4.378;2022-10-16T10:06:45;2.75;2.75;2.50
73687;PMS7003;62257;48.376;-4.378;2022-10-16T10:11:45;2.25;2.25;2.00
73687;PMS7003;62257;48.376;-4.378;2022-10-16T10:16:48;4.00;2.00;2.00
73687;PMS7003;62257;48.376;-4.378;2022-10-16T10:19:17;2.25;1.00;1.00
73687;PMS7003;62257;48.376;-4.378;2022-10-16T10:21:47;3.00;2.00;1.00
73687;PMS7003;62257;48.376;-4.378;2022-10-16T10:24:13;8.50;8.50;7.00
73687;PMS7003;62257;48.376;-4.378;2022-10-16T10:37:36;22.50;21.00;15.25
73687;PMS7003;62257;48.376;-4.378;2022-10-16T10:40:34;11.25;9.50;8.00
73687;PMS7003;62257;48.376;-4.378;2022-10-16T10:45:59;11.50;9.75;8.00
73687;PMS7003;62257;48.376;-4.378;2022-10-16T10:51:30;10.25;10.25;8.75
73687;PMS7003;62257;48.376;-4.378;2022-10-16T10:57:17;10.00;8.50;7.00
73687;PMS7003;62257;48.376;-4.378;2022-10-16T11:00:06;11.50;8.75;7.50
73687;PMS7003;62257;48.376;-4.378;2022-10-16T11:08:09;7.75;7.00;6.00
73687;PMS7003;62257;48.376;-4.378;2022-10-16T11:10:52;8.50;8.50;7.50
73687;PMS7003;62257;48.376;-4.378;2022-10-16T11:19:35;7.50;7.50;6.25
73687;PMS7003;62257;48.376;-4.378;2022-10-16T11:30:33;5.00;5.00;4.00
73687;PMS7003;62257;48.376;-4.378;2022-10-16T11:38:10;2.75;2.75;2.00
73687;PMS7003;62257;48.376;-4.378;2022-10-16T11:40:52;1.25;1.00;1.00
73687;PMS7003;62257;48.376;-4.378;2022-10-16T11:43:25;4.00;1.00;1.00
73687;PMS7003;62257;48.376;-4.378;2022-10-16T11:46:02;1.00;1.00;1.00
73687;PMS7003;62257;48.376;-4.378;2022-10-16T11:48:43;1.50;1.50;1.25
73687;PMS7003;62257;48.376;-4.378;2022-10-16T11:56:59;1.00;1.00;1.00
73687;PMS7003;62257;48.376;-4.378;2022-10-16T12:02:44;2.00;2.00;1.25
73687;PMS7003;62257;48.376;-4.378;2022-10-16T12:05:55;2.00;2.00;2.00
73687;PMS7003;62257;48.376;-4.378;2022-10-16T12:08:30;1.00;1.00;1.00
73687;PMS7003;62257;48.376;-4.378;2022-10-16T12:11:09;3.00;1.75;1.75
73687;PMS7003;62257;48.376;-4.378;2022-10-16T12:16:59;4.75;4.75;4.25
73687;PMS7003;62257;48.376;-4.378;2022-10-16T12:19:31;1.00;1.00;1.00
73687;PMS7003;62257;48.376;-4.378;2022-10-16T12:21:58;1.75;1.00;1.00
73687;PMS7003;62257;48.376;-4.378;2022-10-16T12:27:02;3.75;3.25;2.00
73687;PMS7003;62257;48.376;-4.378;2022-10-16T12:34:50;6.50;6.50;6.00
73687;PMS7003;62257;48.376;-4.378;2022-10-16T12:37:20;6.75;5.00;4.50
73687;PMS7003;62257;48.376;-4.378;2022-10-16T12:39:49;2.25;2.25;2.00
73687;PMS7003;62257;48.376;-4.378;2022-10-16T12:42:20;3.50;2.75;2.50
73687;PMS7003;62257;48.376;-4.378;2022-10-16T12:44:48;2.75;2.50;2.25
73687;PMS7003;62257;48.376;-4.378;2022-10-16T12:47:34;0.50;0.00;0.00
73687;PMS7003;62257;48.376;-4.378;2022-10-16T12:50:02;0.00;0.00;0.00
73687;PMS7003;62257;48.376;-4.378;2022-10-16T12:52:35;0.00;0.00;0.00
73687;PMS7003;62257;48.376;-4.378;2022-10-16T12:55:03;1.25;1.00;1.00
73687;PMS7003;62257;48.376;-4.378;2022-10-16T13:00:18;0.00;0.00;0.00
73687;PMS7003;62257;48.376;-4.378;2022-10-16T13:14:39;2.00;1.50;1.00
73687;PMS7003;62257;48.376;-4.378;2022-10-16T13:19:42;3.00;2.00;2.00
73687;PMS7003;62257;48.376;-4.378;2022-10-16T13:30:26;4.00;2.00;1.75
73687;PMS7003;62257;48.376;-4.378;2022-10-16T13:32:59;1.75;1.75;1.75
73687;PMS7003;62257;48.376;-4.378;2022-10-16T13:35:28;4.50;4.00;3.25
73687;PMS7003;62257;48.376;-4.378;2022-10-16T13:40:48;2.00;2.00;1.25
73687;PMS7003;62257;48.376;-4.378;2022-10-16T13:46:17;3.00;2.00;2.00
73687;PMS7003;62257;48.376;-4.378;2022-10-16T13:48:45;4.00;1.75;0.75
73687;PMS7003;62257;48.376;-4.378;2022-10-16T13:51:22;1.50;1.50;1.50
73687;PMS7003;62257;48.376;-4.378;2022-10-16T13:53:47;3.50;1.50;1.00
73687;PMS7003;62257;48.376;-4.378;2022-10-16T13:56:14;3.25;3.25;2.75
73687;PMS7003;62257;48.376;-4.378;2022-10-16T13:58:44;6.00;3.00;2.75
73687;PMS7003;62257;48.376;-4.378;2022-10-16T14:01:18;5.00;3.00;2.75
73687;PMS7003;62257;48.376;-4.378;2022-10-16T14:04:00;4.00;4.00;3.00
73687;PMS7003;62257;48.376;-4.378;2022-10-16T14:06:30;4.00;2.75;2.00
73687;PMS7003;62257;48.376;-4.378;2022-10-16T14:09:07;3.25;3.00;2.00
73687;PMS7003;62257;48.376;-4.378;2022-10-16T14:11:48;4.00;3.75;3.00
73687;PMS7003;62257;48.376;-4.378;2022-10-16T14:14:16;4.75;3.00;3.00
73687;PMS7003;62257;48.376;-4.378;2022-10-16T14:16:43;4.50;3.00;2.50
73687;PMS7003;62257;48.376;-4.378;2022-10-16T14:19:19;2.00;2.00;1.00
73687;PMS7003;62257;48.376;-4.378;2022-10-16T14:21:47;5.50;2.00;2.00
73687;PMS7003;62257;48.376;-4.378;2022-10-16T14:26:55;2.75;2.75;2.00
73687;PMS7003;62257;48.376;-4.378;2022-10-16T14:29:22;2.00;2.00;2.00
73687;PMS7003;62257;48.376;-4.378;2022-10-16T14:32:02;2.75;2.75;2.00
73687;PMS7003;62257;48.376;-4.378;2022-10-16T14:34:33;4.75;2.50;2.50
73687;PMS7003;62257;48.376;-4.378;2022-10-16T14:37:01;3.75;2.50;2.00
73687;PMS7003;62257;48.376;-4.378;2022-10-16T14:39:40;2.25;2.25;2.00
73687;PMS7003;62257;48.376;-4.378;2022-10-16T14:42:13;1.00;0.25;0.25
73687;PMS7003;62257;48.376;-4.378;2022-10-16T14:44:42;8.00;6.25;5.75
73687;PMS7003;62257;48.376;-4.378;2022-10-16T14:47:09;4.50;3.00;2.25
73687;PMS7003;62257;48.376;-4.378;2022-10-16T14:49:38;5.00;3.25;3.00
73687;PMS7003;62257;48.376;-4.378;2022-10-16T14:52:12;4.50;2.50;1.75
73687;PMS7003;62257;48.376;-4.378;2022-10-16T14:54:38;3.75;2.00;2.00
73687;PMS7003;62257;48.376;-4.378;2022-10-16T14:57:03;2.00;2.00;1.50
73687;PMS7003;62257;48.376;-4.378;2022-10-16T14:59:35;3.50;1.75;1.50
73687;PMS7003;62257;48.376;-4.378;2022-10-16T15:02:15;3.25;3.25;2.00
73687;PMS7003;62257;48.376;-4.378;2022-10-16T15:04:48;2.25;2.00;2.00
73687;PMS7003;62257;48.376;-4.378;2022-10-16T15:07:14;4.25;3.00;2.00
73687;PMS7003;62257;48.376;-4.378;2022-10-16T15:09:39;7.50;2.50;2.00
73687;PMS7003;62257;48.376;-4.378;2022-10-16T15:12:05;5.25;4.00;3.50
73687;PMS7003;62257;48.376;-4.378;2022-10-16T15:14:30;1.50;1.25;1.00
73687;PMS7003;62257;48.376;-4.378;2022-10-16T15:16:56;3.00;2.25;2.00
73687;PMS7003;62257;48.376;-4.378;2022-10-16T15:19:21;3.25;2.00;1.00
73687;PMS7003;62257;48.376;-4.378;2022-10-16T15:21:47;4.00;2.50;2.00
73687;PMS7003;62257;48.376;-4.378;2022-10-16T15:24:13;2.25;2.25;1.75
73687;PMS7003;62257;48.376;-4.378;2022-10-16T15:26:39;2.25;1.50;0.50
73687;PMS7003;62257;48.376;-4.378;2022-10-16T15:29:05;3.25;1.00;1.00
73687;PMS7003;62257;48.376;-4.378;2022-10-16T15:31:31;2.00;2.00;1.00
73687;PMS7003;62257;48.376;-4.378;2022-10-16T15:33:57;3.50;2.75;1.75
73687;PMS7003;62257;48.376;-4.378;2022-10-16T15:36:31;5.25;3.50;2.25
73687;PMS7003;62257;48.376;-4.378;2022-10-16T15:39:01;2.75;2.25;1.25
73687;PMS7003;62257;48.376;-4.378;2022-10-16T15:41:31;0.50;0.50;0.50
73687;PMS7003;62257;48.376;-4.378;2022-10-16T15:43:56;2.00;2.00;1.00
73687;PMS7003;62257;48.376;-4.378;2022-10-16T15:46:22;3.50;3.00;2.25
73687;PMS7003;62257;48.376;-4.378;2022-10-16T15:48:49;2.00;2.00;2.00
73687;PMS7003;62257;48.376;-4.378;2022-10-16T15:51:16;3.00;1.75;1.75
73687;PMS7003;62257;48.376;-4.378;2022-10-16T15:53:43;3.25;2.75;2.00
73687;PMS7003;62257;48.376;-4.378;2022-10-16T15:56:11;6.50;1.50;1.25
73687;PMS7003;62257;48.376;-4.378;2022-10-16T15:58:37;1.00;1.00;0.00
73687;PMS7003;62257;48.376;-4.378;2022-10-16T16:01:03;4.25;2.00;2.00
73687;PMS7003;62257;48.376;-4.378;2022-10-16T16:03:29;2.50;1.50;1.25
73687;PMS7003;62257;48.376;-4.378;2022-10-16T16:05:56;2.50;2.00;2.00
73687;PMS7003;62257;48.376;-4.378;2022-10-16T16:08:21;3.25;3.25;2.00
73687;PMS7003;62257;48.376;-4.378;2022-10-16T16:11:00;3.25;3.25;1.50
73687;PMS7003;62257;48.376;-4.378;2022-10-16T16:13:27;2.50;2.50;1.50
73687;PMS7003;62257;48.376;-4.378;2022-10-16T16:15:53;6.25;4.50;3.25
73687;PMS7003;62257;48.376;-4.378;2022-10-16T16:18:19;5.75;3.75;3.00
73687;PMS7003;62257;48.376;-4.378;2022-10-16T16:20:44;7.50;4.50;3.00
73687;PMS7003;62257;48.376;-4.378;2022-10-16T16:23:09;3.75;3.75;3.00
73687;PMS7003;62257;48.376;-4.378;2022-10-16T16:25:35;3.00;3.00;2.00
73687;PMS7003;62257;48.376;-4.378;2022-10-16T16:28:01;5.75;2.75;2.00
73687;PMS7003;62257;48.376;-4.378;2022-10-16T16:30:26;6.25;3.75;2.50
73687;PMS7003;62257;48.376;-4.378;2022-10-16T16:32:52;6.50;4.00;2.00
73687;PMS7003;62257;48.376;-4.378;2022-10-16T16:35:17;3.00;3.00;2.00
73687;PMS7003;62257;48.376;-4.378;2022-10-16T16:37:42;4.75;3.00;2.25
73687;PMS7003;62257;48.376;-4.378;2022-10-16T16:40:08;5.50;4.25;3.00